sensor_id;sensor_type;location;lat;lon;timestamp;temperature;humidity
71942;DHT22;59997;53.300;-6.260;2023-05-19T00:00:33;12.99;87.12
71942;DHT22;59997;53.300;-6.260;2023-05-19T00:03:02;12.92;86.97
71942;DHT22;59997;53.300;-6.260;2023-05-19T00:05:28;12.95;86.89
71942;DHT22;59997;53.300;-6.260;2023-05-19T00:07:58;12.93;86.77
71942;DHT22;59997;53.300;-6.260;2023-05-19T00:10:24;12.87;86.78
71942;DHT22;59997;53.300;-6.260;2023-05-19T00:12:52;12.73;86.89
71942;DHT22;59997;53.300;-6.260;2023-05-19T00:15:17;12.60;87.07
71942;DHT22;59997;53.300;-6.260;2023-05-19T00:17:43;12.64;87.28
71942;DHT22;59997;53.300;-6.260;2023-05-19T00:20:09;12.75;87.28
71942;DHT22;59997;53.300;-6.260;2023-05-19T00:22:36;12.85;87.27
71942;DHT22;59997;53.300;-6.260;2023-05-19T00:25:02;13.05;86.81
71942;DHT22;59997;53.300;-6.260;2023-05-19T00:27:28;13.12;86.48
71942;DHT22;59997;53.300;-6.260;2023-05-19T00:29:53;13.13;86.31
71942;DHT22;59997;53.300;-6.260;2023-05-19T00:32:19;13.20;86.05
71942;DHT22;59997;53.300;-6.260;2023-05-19T00:34:44;13.17;85.94
71942;DHT22;59997;53.300;-6.260;2023-05-19T00:37:11;13.12;85.92
71942;DHT22;59997;53.300;-6.260;2023-05-19T00:39:37;13.16;85.71
71942;DHT22;59997;53.300;-6.260;2023-05-19T00:42:02;13.17;85.75
71942;DHT22;59997;53.300;-6.260;2023-05-19T00:44:30;13.22;85.62
71942;DHT22;59997;53.300;-6.260;2023-05-19T00:46:56;13.22;85.41
71942;DHT22;59997;53.300;-6.260;2023-05-19T00:49:22;13.24;85.40
71942;DHT22;59997;53.300;-6.260;2023-05-19T00:51:47;13.27;85.31
71942;DHT22;59997;53.300;-6.260;2023-05-19T00:54:14;13.26;85.22
71942;DHT22;59997;53.300;-6.260;2023-05-19T00:56:40;13.28;85.13
71942;DHT22;59997;53.300;-6.260;2023-05-19T00:59:06;13.32;85.09
71942;DHT22;59997;53.300;-6.260;2023-05-19T01:01:32;13.32;84.99
71942;DHT22;59997;53.300;-6.260;2023-05-19T01:03:58;13.32;84.98
71942;DHT22;59997;53.300;-6.260;2023-05-19T01:06:24;13.28;84.94
71942;DHT22;59997;53.300;-6.260;2023-05-19T01:08:52;13.27;84.95
71942;DHT22;59997;53.300;-6.260;2023-05-19T01:11:18;13.27;84.95
71942;DHT22;59997;53.300;-6.260;2023-05-19T01:13:44;13.30;84.96
71942;DHT22;59997;53.300;-6.260;2023-05-19T01:16:18;13.24;84.86
71942;DHT22;59997;53.300;-6.260;2023-05-19T01:32:41;12.54;82.64
71942;DHT22;59997;53.300;-6.260;2023-05-19T01:35:09;12.44;80.83
71942;DHT22;59997;53.300;-6.260;2023-05-19T01:37:36;12.40;81.35
71942;DHT22;59997;53.300;-6.260;2023-05-19T01:40:03;12.40;81.47
71942;DHT22;59997;53.300;-6.260;2023-05-19T01:42:29;12.37;80.88
71942;DHT22;59997;53.300;-6.260;2023-05-19T01:45:05;12.44;80.97
71942;DHT22;59997;53.300;-6.260;2023-05-19T01:47:34;12.50;81.31
71942;DHT22;59997;53.300;-6.260;2023-05-19T01:50:03;12.51;81.26
71942;DHT22;59997;53.300;-6.260;2023-05-19T01:52:28;12.49;81.38
71942;DHT22;59997;53.300;-6.260;2023-05-19T01:54:54;12.54;81.46
71942;DHT22;59997;53.300;-6.260;2023-05-19T02:02:25;12.44;80.38
71942;DHT22;59997;53.300;-6.260;2023-05-19T02:05:00;12.46;79.84
71942;DHT22;59997;53.300;-6.260;2023-05-19T02:07:51;12.43;79.17
71942;DHT22;59997;53.300;-6.260;2023-05-19T02:10:27;12.41;78.91
71942;DHT22;59997;53.300;-6.260;2023-05-19T02:12:59;12.39;78.69
71942;DHT22;59997;53.300;-6.260;2023-05-19T02:15:29;12.32;78.90
71942;DHT22;59997;53.300;-6.260;2023-05-19T02:17:56;12.33;78.99
71942;DHT22;59997;53.300;-6.260;2023-05-19T02:20:24;12.25;79.18
71942;DHT22;59997;53.300;-6.260;2023-05-19T02:22:49;12.25;79.24
71942;DHT22;59997;53.300;-6.260;2023-05-19T02:25:15;12.21;79.45
71942;DHT22;59997;53.300;-6.260;2023-05-19T02:27:41;12.11;79.74
71942;DHT22;59997;53.300;-6.260;2023-05-19T02:30:07;11.99;80.25
71942;DHT22;59997;53.300;-6.260;2023-05-19T02:32:34;12.01;80.18
71942;DHT22;59997;53.300;-6.260;2023-05-19T02:35:00;12.01;80.11
71942;DHT22;59997;53.300;-6.260;2023-05-19T02:37:26;11.89;80.32
71942;DHT22;59997;53.300;-6.260;2023-05-19T02:39:55;11.87;80.41
71942;DHT22;59997;53.300;-6.260;2023-05-19T02:42:20;11.82;80.38
71942;DHT22;59997;53.300;-6.260;2023-05-19T02:44:46;11.80;80.57
71942;DHT22;59997;53.300;-6.260;2023-05-19T02:47:12;11.64;80.88
71942;DHT22;59997;53.300;-6.260;2023-05-19T02:49:38;11.54;80.89
71942;DHT22;59997;53.300;-6.260;2023-05-19T02:52:04;11.49;80.98
71942;DHT22;59997;53.300;-6.260;2023-05-19T02:54:31;11.39;81.29
71942;DHT22;59997;53.300;-6.260;2023-05-19T02:56:57;11.36;81.22
71942;DHT22;59997;53.300;-6.260;2023-05-19T02:59:23;11.23;81.23
71942;DHT22;59997;53.300;-6.260;2023-05-19T03:01:49;11.07;81.60
71942;DHT22;59997;53.300;-6.260;2023-05-19T03:04:15;10.93;81.94
71942;DHT22;59997;53.300;-6.260;2023-05-19T03:06:40;10.71;82.51
71942;DHT22;59997;53.300;-6.260;2023-05-19T03:09:07;10.76;82.94
71942;DHT22;59997;53.300;-6.260;2023-05-19T03:11:32;10.73;83.18
71942;DHT22;59997;53.300;-6.260;2023-05-19T03:13:57;10.70;83.25
71942;DHT22;59997;53.300;-6.260;2023-05-19T03:16:23;10.63;83.36
71942;DHT22;59997;53.300;-6.260;2023-05-19T03:18:49;10.60;83.62
71942;DHT22;59997;53.300;-6.260;2023-05-19T03:21:15;10.59;83.56
71942;DHT22;59997;53.300;-6.260;2023-05-19T03:23:40;10.45;83.84
71942;DHT22;59997;53.300;-6.260;2023-05-19T03:26:06;10.42;83.95
71942;DHT22;59997;53.300;-6.260;2023-05-19T03:28:31;10.26;84.34
71942;DHT22;59997;53.300;-6.260;2023-05-19T03:30:57;10.08;84.44
71942;DHT22;59997;53.300;-6.260;2023-05-19T03:33:22;9.97;84.77
71942;DHT22;59997;53.300;-6.260;2023-05-19T03:35:48;9.86;85.11
71942;DHT22;59997;53.300;-6.260;2023-05-19T03:38:13;9.93;85.41
71942;DHT22;59997;53.300;-6.260;2023-05-19T03:40:39;10.00;85.51
71942;DHT22;59997;53.300;-6.260;2023-05-19T03:43:06;10.09;85.54
71942;DHT22;59997;53.300;-6.260;2023-05-19T03:45:32;10.31;85.25
71942;DHT22;59997;53.300;-6.260;2023-05-19T03:47:57;10.25;85.24
71942;DHT22;59997;53.300;-6.260;2023-05-19T03:50:23;10.21;85.15
71942;DHT22;59997;53.300;-6.260;2023-05-19T03:52:48;10.24;85.19
71942;DHT22;59997;53.300;-6.260;2023-05-19T03:55:14;10.19;85.21
71942;DHT22;59997;53.300;-6.260;2023-05-19T03:57:40;10.31;84.96
71942;DHT22;59997;53.300;-6.260;2023-05-19T04:00:08;10.34;85.02
71942;DHT22;59997;53.300;-6.260;2023-05-19T04:02:35;10.34;84.92
71942;DHT22;59997;53.300;-6.260;2023-05-19T04:05:01;10.29;84.98
71942;DHT22;59997;53.300;-6.260;2023-05-19T04:07:29;10.29;84.99
71942;DHT22;59997;53.300;-6.260;2023-05-19T04:09:55;10.21;85.03
71942;DHT22;59997;53.300;-6.260;2023-05-19T04:12:21;10.08;85.13
71942;DHT22;59997;53.300;-6.260;2023-05-19T04:14:46;9.87;85.26
71942;DHT22;59997;53.300;-6.260;2023-05-19T04:17:11;9.77;85.54
71942;DHT22;59997;53.300;-6.260;2023-05-19T04:19:37;9.63;85.85
71942;DHT22;59997;53.300;-6.260;2023-05-19T04:22:02;9.57;85.94
71942;DHT22;59997;53.300;-6.260;2023-05-19T04:24:28;9.59;86.21
71942;DHT22;59997;53.300;-6.260;2023-05-19T04:26:53;9.60;86.22
71942;DHT22;59997;53.300;-6.260;2023-05-19T04:29:20;9.48;86.32
71942;DHT22;59997;53.300;-6.260;2023-05-19T04:31:47;9.60;86.56
71942;DHT22;59997;53.300;-6.260;2023-05-19T04:34:13;9.56;86.60
71942;DHT22;59997;53.300;-6.260;2023-05-19T04:36:38;9.49;86.64
71942;DHT22;59997;53.300;-6.260;2023-05-19T04:39:04;9.45;86.82
71942;DHT22;59997;53.300;-6.260;2023-05-19T04:41:34;9.52;86.81
71942;DHT22;59997;53.300;-6.260;2023-05-19T04:43:59;9.67;86.73
71942;DHT22;59997;53.300;-6.260;2023-05-19T04:46:25;9.72;86.56
71942;DHT22;59997;53.300;-6.260;2023-05-19T04:48:51;9.70;86.54
71942;DHT22;59997;53.300;-6.260;2023-05-19T04:51:21;9.76;86.51
71942;DHT22;59997;53.300;-6.260;2023-05-19T04:53:47;9.77;86.36
71942;DHT22;59997;53.300;-6.260;2023-05-19T04:56:13;9.82;86.27
71942;DHT22;59997;53.300;-6.260;2023-05-19T04:58:40;9.94;86.04
71942;DHT22;59997;53.300;-6.260;2023-05-19T05:01:06;10.07;85.80
71942;DHT22;59997;53.300;-6.260;2023-05-19T05:03:33;10.08;85.54
71942;DHT22;59997;53.300;-6.260;2023-05-19T05:05:59;10.08;85.48
71942;DHT22;59997;53.300;-6.260;2023-05-19T05:08:24;9.93;85.73
71942;DHT22;59997;53.300;-6.260;2023-05-19T05:10:51;9.79;85.84
71942;DHT22;59997;53.300;-6.260;2023-05-19T05:13:21;9.74;86.00
71942;DHT22;59997;53.300;-6.260;2023-05-19T05:15:47;9.73;86.16
71942;DHT22;59997;53.300;-6.260;2023-05-19T05:18:14;9.93;86.04
71942;DHT22;59997;53.300;-6.260;2023-05-19T05:20:41;9.98;85.85
71942;DHT22;59997;53.300;-6.260;2023-05-19T05:23:08;10.01;85.84
71942;DHT22;59997;53.300;-6.260;2023-05-19T05:25:34;10.11;85.64
71942;DHT22;59997;53.300;-6.260;2023-05-19T05:28:00;10.17;85.61
71942;DHT22;59997;53.300;-6.260;2023-05-19T05:30:29;10.29;85.38
71942;DHT22;59997;53.300;-6.260;2023-05-19T05:32:55;10.22;85.54
71942;DHT22;59997;53.300;-6.260;2023-05-19T05:35:22;10.24;85.41
71942;DHT22;59997;53.300;-6.260;2023-05-19T05:37:48;10.31;85.42
71942;DHT22;59997;53.300;-6.260;2023-05-19T05:40:13;10.41;85.19
71942;DHT22;59997;53.300;-6.260;2023-05-19T05:42:39;10.61;84.59
71942;DHT22;59997;53.300;-6.260;2023-05-19T05:45:05;10.66;84.20
71942;DHT22;59997;53.300;-6.260;2023-05-19T05:47:31;10.66;84.15
71942;DHT22;59997;53.300;-6.260;2023-05-19T05:49:57;10.71;83.91
71942;DHT22;59997;53.300;-6.260;2023-05-19T05:52:26;10.71;83.70
71942;DHT22;59997;53.300;-6.260;2023-05-19T05:54:54;10.76;83.63
71942;DHT22;59997;53.300;-6.260;2023-05-19T05:57:20;10.80;83.58
71942;DHT22;59997;53.300;-6.260;2023-05-19T05:59:46;10.81;83.79
71942;DHT22;59997;53.300;-6.260;2023-05-19T06:02:11;10.85;83.60
71942;DHT22;59997;53.300;-6.260;2023-05-19T06:04:37;10.87;83.53
71942;DHT22;59997;53.300;-6.260;2023-05-19T06:07:02;10.97;83.42
71942;DHT22;59997;53.300;-6.260;2023-05-19T06:09:28;11.02;83.30
71942;DHT22;59997;53.300;-6.260;2023-05-19T06:11:57;11.14;82.62
71942;DHT22;59997;53.300;-6.260;2023-05-19T06:14:24;11.25;82.31
71942;DHT22;59997;53.300;-6.260;2023-05-19T06:16:49;11.32;82.04
71942;DHT22;59997;53.300;-6.260;2023-05-19T06:19:15;11.37;82.46
71942;DHT22;59997;53.300;-6.260;2023-05-19T06:21:40;11.44;82.04
71942;DHT22;59997;53.300;-6.260;2023-05-19T06:24:07;11.54;81.94
71942;DHT22;59997;53.300;-6.260;2023-05-19T06:26:32;11.64;81.68
71942;DHT22;59997;53.300;-6.260;2023-05-19T06:28:58;11.74;81.39
71942;DHT22;59997;53.300;-6.260;2023-05-19T06:31:23;11.75;81.30
71942;DHT22;59997;53.300;-6.260;2023-05-19T06:33:51;11.82;80.78
71942;DHT22;59997;53.300;-6.260;2023-05-19T06:36:17;11.85;80.64
71942;DHT22;59997;53.300;-6.260;2023-05-19T06:38:43;11.80;80.65
71942;DHT22;59997;53.300;-6.260;2023-05-19T06:41:08;11.82;81.05
71942;DHT22;59997;53.300;-6.260;2023-05-19T06:43:34;11.84;80.96
71942;DHT22;59997;53.300;-6.260;2023-05-19T06:45:59;11.75;81.10
71942;DHT22;59997;53.300;-6.260;2023-05-19T06:48:26;11.74;80.90
71942;DHT22;59997;53.300;-6.260;2023-05-19T06:50:52;11.78;80.94
71942;DHT22;59997;53.300;-6.260;2023-05-19T06:53:18;11.85;80.85
71942;DHT22;59997;53.300;-6.260;2023-05-19T06:55:44;11.92;80.60
71942;DHT22;59997;53.300;-6.260;2023-05-19T06:58:10;12.05;80.61
71942;DHT22;59997;53.300;-6.260;2023-05-19T07:00:36;12.06;80.59
71942;DHT22;59997;53.300;-6.260;2023-05-19T07:03:01;12.05;80.21
71942;DHT22;59997;53.300;-6.260;2023-05-19T07:05:27;12.12;80.13
71942;DHT22;59997;53.300;-6.260;2023-05-19T07:07:52;12.13;80.00
71942;DHT22;59997;53.300;-6.260;2023-05-19T07:10:18;12.21;79.83
71942;DHT22;59997;53.300;-6.260;2023-05-19T07:12:45;12.26;79.71
71942;DHT22;59997;53.300;-6.260;2023-05-19T07:15:11;12.32;79.85
71942;DHT22;59997;53.300;-6.260;2023-05-19T07:17:36;12.28;79.82
71942;DHT22;59997;53.300;-6.260;2023-05-19T07:20:02;12.29;79.99
71942;DHT22;59997;53.300;-6.260;2023-05-19T07:22:31;12.29;79.76
71942;DHT22;59997;53.300;-6.260;2023-05-19T07:24:59;12.39;79.57
71942;DHT22;59997;53.300;-6.260;2023-05-19T07:27:25;12.46;79.84
71942;DHT22;59997;53.300;-6.260;2023-05-19T07:29:50;12.47;79.47
71942;DHT22;59997;53.300;-6.260;2023-05-19T07:32:16;12.50;79.20
71942;DHT22;59997;53.300;-6.260;2023-05-19T07:34:41;12.44;79.16
71942;DHT22;59997;53.300;-6.260;2023-05-19T07:37:07;12.49;79.23
71942;DHT22;59997;53.300;-6.260;2023-05-19T07:39:33;12.51;79.29
71942;DHT22;59997;53.300;-6.260;2023-05-19T07:41:59;12.56;79.27
71942;DHT22;59997;53.300;-6.260;2023-05-19T07:44:24;12.57;79.29
71942;DHT22;59997;53.300;-6.260;2023-05-19T07:46:52;12.69;79.16
71942;DHT22;59997;53.300;-6.260;2023-05-19T07:49:17;12.78;78.67
71942;DHT22;59997;53.300;-6.260;2023-05-19T07:51:43;12.84;79.09
71942;DHT22;59997;53.300;-6.260;2023-05-19T07:54:08;12.96;78.73
71942;DHT22;59997;53.300;-6.260;2023-05-19T07:56:34;13.13;78.45
71942;DHT22;59997;53.300;-6.260;2023-05-19T07:58:59;13.43;78.23
71942;DHT22;59997;53.300;-6.260;2023-05-19T08:01:25;13.53;77.66
71942;DHT22;59997;53.300;-6.260;2023-05-19T08:03:51;13.67;77.08
71942;DHT22;59997;53.300;-6.260;2023-05-19T08:06:16;13.60;76.52
71942;DHT22;59997;53.300;-6.260;2023-05-19T08:08:42;13.87;76.85
71942;DHT22;59997;53.300;-6.260;2023-05-19T08:11:07;14.14;76.84
71942;DHT22;59997;53.300;-6.260;2023-05-19T08:13:33;14.26;75.78
71942;DHT22;59997;53.300;-6.260;2023-05-19T08:15:59;14.54;75.29
71942;DHT22;59997;53.300;-6.260;2023-05-19T08:18:25;14.24;74.47
71942;DHT22;59997;53.300;-6.260;2023-05-19T08:20:50;14.26;74.79
71942;DHT22;59997;53.300;-6.260;2023-05-19T08:23:16;14.14;75.37
71942;DHT22;59997;53.300;-6.260;2023-05-19T08:25:42;14.12;75.60
71942;DHT22;59997;53.300;-6.260;2023-05-19T08:28:08;13.83;75.79
71942;DHT22;59997;53.300;-6.260;2023-05-19T08:30:33;13.86;76.51
71942;DHT22;59997;53.300;-6.260;2023-05-19T08:32:59;13.74;76.79
71942;DHT22;59997;53.300;-6.260;2023-05-19T08:35:24;13.87;76.42
71942;DHT22;59997;53.300;-6.260;2023-05-19T08:37:50;13.83;76.76
71942;DHT22;59997;53.300;-6.260;2023-05-19T08:40:16;13.99;76.64
71942;DHT22;59997;53.300;-6.260;2023-05-19T08:42:43;13.98;76.14
71942;DHT22;59997;53.300;-6.260;2023-05-19T08:45:09;13.87;75.61
71942;DHT22;59997;53.300;-6.260;2023-05-19T08:47:35;13.60;75.75
71942;DHT22;59997;53.300;-6.260;2023-05-19T08:50:05;13.67;75.90
71942;DHT22;59997;53.300;-6.260;2023-05-19T08:55:33;13.67;76.33
71942;DHT22;59997;53.300;-6.260;2023-05-19T08:58:02;13.89;75.85
71942;DHT22;59997;53.300;-6.260;2023-05-19T09:00:29;14.05;75.09
71942;DHT22;59997;53.300;-6.260;2023-05-19T09:02:54;14.24;74.59
71942;DHT22;59997;53.300;-6.260;2023-05-19T09:05:21;14.12;75.53
71942;DHT22;59997;53.300;-6.260;2023-05-19T09:07:46;14.30;74.94
71942;DHT22;59997;53.300;-6.260;2023-05-19T09:10:12;14.42;74.11
71942;DHT22;59997;53.300;-6.260;2023-05-19T09:12:42;14.34;74.36
71942;DHT22;59997;53.300;-6.260;2023-05-19T09:15:09;14.34;74.58
71942;DHT22;59997;53.300;-6.260;2023-05-19T09:17:36;14.28;74.29
71942;DHT22;59997;53.300;-6.260;2023-05-19T09:20:02;14.23;75.00
71942;DHT22;59997;53.300;-6.260;2023-05-19T09:22:30;14.26;74.98
71942;DHT22;59997;53.300;-6.260;2023-05-19T09:24:59;14.23;75.29
71942;DHT22;59997;53.300;-6.260;2023-05-19T09:27:25;14.21;74.44
71942;DHT22;59997;53.300;-6.260;2023-05-19T09:29:51;14.49;73.91
71942;DHT22;59997;53.300;-6.260;2023-05-19T09:32:26;14.54;73.98
71942;DHT22;59997;53.300;-6.260;2023-05-19T09:34:54;14.52;73.30
71942;DHT22;59997;53.300;-6.260;2023-05-19T09:37:22;14.49;73.40
71942;DHT22;59997;53.300;-6.260;2023-05-19T09:39:48;14.57;73.37
71942;DHT22;59997;53.300;-6.260;2023-05-19T09:42:23;14.68;73.29
71942;DHT22;59997;53.300;-6.260;2023-05-19T09:44:50;15.08;72.89
71942;DHT22;59997;53.300;-6.260;2023-05-19T09:47:15;15.28;72.45
71942;DHT22;59997;53.300;-6.260;2023-05-19T09:49:45;15.38;71.76
71942;DHT22;59997;53.300;-6.260;2023-05-19T09:52:14;15.54;70.68
71942;DHT22;59997;53.300;-6.260;2023-05-19T09:54:43;15.65;70.62
71942;DHT22;59997;53.300;-6.260;2023-05-19T09:57:09;15.65;71.28
71942;DHT22;59997;53.300;-6.260;2023-05-19T09:59:35;15.67;71.08
71942;DHT22;59997;53.300;-6.260;2023-05-19T10:02:03;15.62;71.18
71942;DHT22;59997;53.300;-6.260;2023-05-19T10:04:29;15.87;70.61
71942;DHT22;59997;53.300;-6.260;2023-05-19T10:06:56;15.99;70.47
71942;DHT22;59997;53.300;-6.260;2023-05-19T10:09:29;16.00;71.65
71942;DHT22;59997;53.300;-6.260;2023-05-19T10:11:56;15.62;69.93
71942;DHT22;59997;53.300;-6.260;2023-05-19T10:14:28;15.28;70.44
71942;DHT22;59997;53.300;-6.260;2023-05-19T10:16:56;15.57;71.07
71942;DHT22;59997;53.300;-6.260;2023-05-19T10:19:24;15.47;70.76
71942;DHT22;59997;53.300;-6.260;2023-05-19T10:21:50;15.58;70.67
71942;DHT22;59997;53.300;-6.260;2023-05-19T10:24:16;15.61;70.39
71942;DHT22;59997;53.300;-6.260;2023-05-19T10:26:49;15.99;71.62
71942;DHT22;59997;53.300;-6.260;2023-05-19T10:29:19;15.93;70.54
71942;DHT22;59997;53.300;-6.260;2023-05-19T10:31:46;16.13;69.78
71942;DHT22;59997;53.300;-6.260;2023-05-19T10:36:50;16.47;68.94
71942;DHT22;59997;53.300;-6.260;2023-05-19T10:39:28;16.73;68.78
71942;DHT22;59997;53.300;-6.260;2023-05-19T10:42:16;16.58;68.32
71942;DHT22;59997;53.300;-6.260;2023-05-19T10:45:06;16.53;68.30
71942;DHT22;59997;53.300;-6.260;2023-05-19T10:47:34;16.66;68.47
71942;DHT22;59997;53.300;-6.260;2023-05-19T10:50:00;16.73;69.73
71942;DHT22;59997;53.300;-6.260;2023-05-19T10:52:25;16.86;67.49
71942;DHT22;59997;53.300;-6.260;2023-05-19T10:54:54;16.55;67.54
71942;DHT22;59997;53.300;-6.260;2023-05-19T10:57:25;16.44;67.84
71942;DHT22;59997;53.300;-6.260;2023-05-19T10:59:57;16.60;70.02
71942;DHT22;59997;53.300;-6.260;2023-05-19T11:02:40;16.20;67.11
71942;DHT22;59997;53.300;-6.260;2023-05-19T11:05:14;16.07;68.47
71942;DHT22;59997;53.300;-6.260;2023-05-19T11:07:58;16.21;68.27
71942;DHT22;59997;53.300;-6.260;2023-05-19T11:10:30;16.34;67.51
71942;DHT22;59997;53.300;-6.260;2023-05-19T11:12:56;16.35;68.40
71942;DHT22;59997;53.300;-6.260;2023-05-19T11:15:25;16.47;68.49
71942;DHT22;59997;53.300;-6.260;2023-05-19T11:17:52;16.27;67.40
71942;DHT22;59997;53.300;-6.260;2023-05-19T11:20:23;16.44;67.21
71942;DHT22;59997;53.300;-6.260;2023-05-19T11:23:06;16.51;67.49
71942;DHT22;59997;53.300;-6.260;2023-05-19T11:25:45;16.84;68.44
71942;DHT22;59997;53.300;-6.260;2023-05-19T11:28:15;17.04;65.75
71942;DHT22;59997;53.300;-6.260;2023-05-19T11:30:44;16.84;65.55
71942;DHT22;59997;53.300;-6.260;2023-05-19T11:33:11;16.45;66.19
71942;DHT22;59997;53.300;-6.260;2023-05-19T11:35:38;16.17;67.39
71942;DHT22;59997;53.300;-6.260;2023-05-19T11:38:05;16.34;67.04
71942;DHT22;59997;53.300;-6.260;2023-05-19T11:40:31;16.55;66.96
71942;DHT22;59997;53.300;-6.260;2023-05-19T11:42:57;16.53;66.11
71942;DHT22;59997;53.300;-6.260;2023-05-19T11:45:24;16.53;66.38
71942;DHT22;59997;53.300;-6.260;2023-05-19T11:47:50;16.42;65.80
71942;DHT22;59997;53.300;-6.260;2023-05-19T11:50:16;16.41;66.19
71942;DHT22;59997;53.300;-6.260;2023-05-19T11:52:45;16.42;65.33
71942;DHT22;59997;53.300;-6.260;2023-05-19T11:55:18;16.49;66.02
71942;DHT22;59997;53.300;-6.260;2023-05-19T12:00:27;16.58;67.11
71942;DHT22;59997;53.300;-6.260;2023-05-19T12:02:53;16.31;67.08
71942;DHT22;59997;53.300;-6.260;2023-05-19T12:05:20;16.25;66.97
71942;DHT22;59997;53.300;-6.260;2023-05-19T12:07:46;16.14;69.39
71942;DHT22;59997;53.300;-6.260;2023-05-19T12:10:15;16.40;68.19
71942;DHT22;59997;53.300;-6.260;2023-05-19T12:12:41;16.70;66.24
71942;DHT22;59997;53.300;-6.260;2023-05-19T12:15:09;16.68;65.11
71942;DHT22;59997;53.300;-6.260;2023-05-19T12:17:35;16.83;66.26
71942;DHT22;59997;53.300;-6.260;2023-05-19T12:20:01;16.79;64.85
71942;DHT22;59997;53.300;-6.260;2023-05-19T12:22:29;16.76;65.20
71942;DHT22;59997;53.300;-6.260;2023-05-19T12:24:54;16.95;64.26
71942;DHT22;59997;53.300;-6.260;2023-05-19T12:27:23;17.11;63.11
71942;DHT22;59997;53.300;-6.260;2023-05-19T12:29:55;17.39;62.25
71942;DHT22;59997;53.300;-6.260;2023-05-19T12:32:27;17.70;63.59
71942;DHT22;59997;53.300;-6.260;2023-05-19T12:34:55;17.93;62.29
71942;DHT22;59997;53.300;-6.260;2023-05-19T12:37:21;17.72;60.74
71942;DHT22;59997;53.300;-6.260;2023-05-19T12:39:49;17.74;61.16
71942;DHT22;59997;53.300;-6.260;2023-05-19T12:42:15;17.63;61.79
71942;DHT22;59997;53.300;-6.260;2023-05-19T12:44:46;17.73;61.32
71942;DHT22;59997;53.300;-6.260;2023-05-19T12:47:15;17.90;61.10
71942;DHT22;59997;53.300;-6.260;2023-05-19T12:50:03;17.57;60.86
71942;DHT22;59997;53.300;-6.260;2023-05-19T12:52:30;17.14;62.15
71942;DHT22;59997;53.300;-6.260;2023-05-19T12:57:27;16.83;62.10
71942;DHT22;59997;53.300;-6.260;2023-05-19T13:00:05;17.10;64.01
71942;DHT22;59997;53.300;-6.260;2023-05-19T13:02:41;17.53;61.87
71942;DHT22;59997;53.300;-6.260;2023-05-19T13:05:19;17.72;60.94
71942;DHT22;59997;53.300;-6.260;2023-05-19T13:07:54;17.74;59.53
71942;DHT22;59997;53.300;-6.260;2023-05-19T13:10:20;17.87;61.58
71942;DHT22;59997;53.300;-6.260;2023-05-19T13:12:45;18.15;59.97
71942;DHT22;59997;53.300;-6.260;2023-05-19T13:15:11;17.72;59.31
71942;DHT22;59997;53.300;-6.260;2023-05-19T13:17:36;17.77;61.32
71942;DHT22;59997;53.300;-6.260;2023-05-19T13:20:02;17.96;60.36
71942;DHT22;59997;53.300;-6.260;2023-05-19T13:22:29;18.09;60.45
71942;DHT22;59997;53.300;-6.260;2023-05-19T13:24:54;18.05;59.14
71942;DHT22;59997;53.300;-6.260;2023-05-19T13:27:23;18.16;60.35
71942;DHT22;59997;53.300;-6.260;2023-05-19T13:29:49;18.35;58.84
71942;DHT22;59997;53.300;-6.260;2023-05-19T13:32:14;18.42;57.83
71942;DHT22;59997;53.300;-6.260;2023-05-19T13:34:40;18.22;60.45
71942;DHT22;59997;53.300;-6.260;2023-05-19T13:37:05;18.40;59.14
71942;DHT22;59997;53.300;-6.260;2023-05-19T13:39:34;18.55;58.43
71942;DHT22;59997;53.300;-6.260;2023-05-19T13:41:59;19.22;55.62
71942;DHT22;59997;53.300;-6.260;2023-05-19T13:44:25;19.39;55.22
71942;DHT22;59997;53.300;-6.260;2023-05-19T13:46:51;19.87;58.11
71942;DHT22;59997;53.300;-6.260;2023-05-19T13:49:17;19.94;55.04
71942;DHT22;59997;53.300;-6.260;2023-05-19T13:51:42;19.33;56.07
71942;DHT22;59997;53.300;-6.260;2023-05-19T13:54:08;18.91;59.75
71942;DHT22;59997;53.300;-6.260;2023-05-19T13:56:34;19.14;58.25
71942;DHT22;59997;53.300;-6.260;2023-05-19T13:59:00;19.16;57.25
71942;DHT22;59997;53.300;-6.260;2023-05-19T14:01:25;18.85;54.59
71942;DHT22;59997;53.300;-6.260;2023-05-19T14:03:51;19.01;56.93
71942;DHT22;59997;53.300;-6.260;2023-05-19T14:06:17;18.91;56.94
71942;DHT22;59997;53.300;-6.260;2023-05-19T14:08:44;18.33;59.63
71942;DHT22;59997;53.300;-6.260;2023-05-19T14:11:09;18.18;58.47
71942;DHT22;59997;53.300;-6.260;2023-05-19T14:13:41;18.48;57.47
71942;DHT22;59997;53.300;-6.260;2023-05-19T14:16:07;18.12;57.05
71942;DHT22;59997;53.300;-6.260;2023-05-19T14:18:32;18.35;59.69
71942;DHT22;59997;53.300;-6.260;2023-05-19T14:20:58;18.53;58.73
71942;DHT22;59997;53.300;-6.260;2023-05-19T14:23:23;18.16;57.46
71942;DHT22;59997;53.300;-6.260;2023-05-19T14:25:49;18.50;56.37
71942;DHT22;59997;53.300;-6.260;2023-05-19T14:28:14;19.14;56.28
71942;DHT22;59997;53.300;-6.260;2023-05-19T14:30:40;19.61;54.44
71942;DHT22;59997;53.300;-6.260;2023-05-19T14:33:05;19.78;54.52
71942;DHT22;59997;53.300;-6.260;2023-05-19T14:35:31;20.09;54.46
71942;DHT22;59997;53.300;-6.260;2023-05-19T14:37:56;19.95;53.66
71942;DHT22;59997;53.300;-6.260;2023-05-19T14:40:22;20.37;52.21
71942;DHT22;59997;53.300;-6.260;2023-05-19T14:42:48;20.22;53.99
71942;DHT22;59997;53.300;-6.260;2023-05-19T14:45:13;20.30;52.41
71942;DHT22;59997;53.300;-6.260;2023-05-19T14:47:39;20.34;51.88
71942;DHT22;59997;53.300;-6.260;2023-05-19T14:50:05;20.25;54.39
71942;DHT22;59997;53.300;-6.260;2023-05-19T14:52:30;20.02;55.09
71942;DHT22;59997;53.300;-6.260;2023-05-19T14:54:55;20.23;57.07
71942;DHT22;59997;53.300;-6.260;2023-05-19T14:57:21;19.85;53.10
71942;DHT22;59997;53.300;-6.260;2023-05-19T14:59:47;19.51;54.78
71942;DHT22;59997;53.300;-6.260;2023-05-19T15:02:12;19.14;55.89
71942;DHT22;59997;53.300;-6.260;2023-05-19T15:04:38;18.91;55.79
71942;DHT22;59997;53.300;-6.260;2023-05-19T15:07:03;18.94;57.70
71942;DHT22;59997;53.300;-6.260;2023-05-19T15:09:29;18.90;56.48
71942;DHT22;59997;53.300;-6.260;2023-05-19T15:11:54;18.50;57.96
71942;DHT22;59997;53.300;-6.260;2023-05-19T15:14:20;18.40;57.73
71942;DHT22;59997;53.300;-6.260;2023-05-19T15:16:45;18.80;58.38
71942;DHT22;59997;53.300;-6.260;2023-05-19T15:19:11;18.73;57.26
71942;DHT22;59997;53.300;-6.260;2023-05-19T15:21:36;18.68;56.40
71942;DHT22;59997;53.300;-6.260;2023-05-19T15:24:02;18.80;56.97
71942;DHT22;59997;53.300;-6.260;2023-05-19T15:26:27;18.55;56.68
71942;DHT22;59997;53.300;-6.260;2023-05-19T15:28:53;19.05;55.42
71942;DHT22;59997;53.300;-6.260;2023-05-19T15:31:18;19.18;54.64
71942;DHT22;59997;53.300;-6.260;2023-05-19T15:33:43;19.32;55.01
71942;DHT22;59997;53.300;-6.260;2023-05-19T15:36:09;19.20;54.30
71942;DHT22;59997;53.300;-6.260;2023-05-19T15:38:40;18.85;56.39
71942;DHT22;59997;53.300;-6.260;2023-05-19T15:41:06;18.95;56.37
71942;DHT22;59997;53.300;-6.260;2023-05-19T15:43:32;18.88;55.86
71942;DHT22;59997;53.300;-6.260;2023-05-19T15:45:58;18.50;55.00